createdAt,value
2023-02-08T00:00:05.521Z,102806.28
2023-02-08T00:02:35.472Z,102800.97
2023-02-08T00:05:03.456Z,102795.97
2023-02-08T00:07:32.748Z,102796.34
2023-02-08T00:10:00.687Z,102734.88
2023-02-08T00:12:29.353Z,102799.59
2023-02-08T00:14:57.407Z,102787.50
2023-02-08T00:17:25.320Z,102786.94
2023-02-08T00:19:53.907Z,102792.91
2023-02-08T00:22:21.784Z,102768.53
2023-02-08T00:24:52.454Z,102780.63
2023-02-08T00:27:21.160Z,102779.38
2023-02-08T00:29:49.038Z,102777.56
2023-02-08T00:32:17.069Z,102770.78
2023-02-08T00:34:44.931Z,102764.72
2023-02-08T00:37:12.810Z,102756.03
2023-02-08T00:39:40.775Z,102743.28
2023-02-08T00:42:09.959Z,102760.00
2023-02-08T00:44:37.901Z,102762.88
2023-02-08T00:47:05.934Z,102720.75
2023-02-08T00:49:33.919Z,102764.31
2023-02-08T00:52:01.765Z,102688.44
2023-02-08T00:54:29.925Z,102640.63
2023-02-08T00:56:57.808Z,102744.53
2023-02-08T00:59:27.803Z,102707.84
2023-02-08T01:01:55.766Z,102763.78
2023-02-08T01:04:24.630Z,102761.88
2023-02-08T01:06:52.540Z,102767.06
2023-02-08T01:09:20.537Z,102731.81
2023-02-08T01:11:50.317Z,102760.09
2023-02-08T01:14:18.259Z,102715.13
2023-02-08T01:16:47.705Z,102728.38
2023-02-08T01:19:15.656Z,102764.06
2023-02-08T01:21:44.345Z,102760.13
2023-02-08T01:24:12.372Z,102764.16
2023-02-08T01:26:40.714Z,102724.50
2023-02-08T01:29:09.751Z,102726.22
2023-02-08T01:31:39.869Z,102757.47
2023-02-08T01:34:10.221Z,102755.47
2023-02-08T01:36:39.293Z,102751.84
2023-02-08T01:39:11.411Z,102752.50
2023-02-08T01:41:43.564Z,102752.09
2023-02-08T01:44:44.710Z,102751.44
2023-02-08T01:47:12.910Z,102733.56
2023-02-08T01:49:42.200Z,102748.25
2023-02-08T01:52:13.244Z,102753.59
2023-02-08T01:54:45.776Z,102757.59
2023-02-08T01:57:13.931Z,102751.06
2023-02-08T01:59:45.491Z,102753.88
2023-02-08T02:02:18.737Z,102758.41
2023-02-08T02:04:51.517Z,102680.25
2023-02-08T02:07:21.031Z,102678.63
2023-02-08T02:09:54.478Z,102746.56
2023-02-08T02:12:22.623Z,102755.22
2023-02-08T02:14:52.087Z,102749.59
2023-02-08T02:17:20.902Z,102734.75
2023-02-08T02:19:58.418Z,102746.03
2023-02-08T02:23:03.781Z,102752.03
2023-02-08T02:26:01.678Z,102726.28
2023-02-08T02:29:10.301Z,102754.94
2023-02-08T02:31:56.154Z,102755.22
2023-02-08T02:34:32.002Z,102731.38
2023-02-08T02:37:07.157Z,102751.69
2023-02-08T02:39:42.325Z,102748.72
2023-02-08T02:42:29.110Z,102744.03
2023-02-08T02:45:10.852Z,102679.50
2023-02-08T02:47:48.759Z,102721.47
2023-02-08T02:50:25.182Z,102667.91
2023-02-08T02:53:01.482Z,102744.22
2023-02-08T02:55:32.102Z,102715.75
2023-02-08T02:58:02.903Z,102742.44
2023-02-08T03:00:32.687Z,102718.72
2023-02-08T03:03:02.002Z,102715.53
2023-02-08T03:05:30.964Z,102720.50
2023-02-08T03:08:22.029Z,102737.97
2023-02-08T03:11:15.686Z,102739.13
2023-02-08T03:14:16.847Z,102738.75
2023-02-08T03:17:01.816Z,102736.38
2023-02-08T03:19:37.659Z,102720.28
2023-02-08T03:22:14.365Z,102733.13
2023-02-08T03:24:50.392Z,102725.09
2023-02-08T03:27:26.091Z,102721.28
2023-02-08T03:30:00.763Z,102671.34
2023-02-08T03:32:37.184Z,102640.78
2023-02-08T03:35:11.352Z,102722.53
2023-02-08T03:37:42.418Z,102729.25
2023-02-08T03:40:15.057Z,102725.16
2023-02-08T03:42:46.001Z,102721.72
2023-02-08T03:45:19.856Z,102704.47
2023-02-08T03:47:50.962Z,102648.44
2023-02-08T03:50:23.041Z,102714.47
2023-02-08T03:52:53.602Z,102716.28
2023-02-08T03:55:24.275Z,102706.72
2023-02-08T03:57:57.440Z,102697.22
2023-02-08T04:00:26.033Z,102715.47
2023-02-08T04:02:58.625Z,102710.06
2023-02-08T04:05:29.059Z,102664.69
2023-02-08T04:07:56.937Z,102603.66
2023-02-08T04:10:24.873Z,102714.63
2023-02-08T04:12:52.842Z,102710.41
2023-02-08T04:15:22.160Z,102700.47
2023-02-08T04:17:50.087Z,102692.44
2023-02-08T04:20:18.159Z,102699.69
2023-02-08T04:22:47.488Z,102703.09
2023-02-08T04:25:15.811Z,102690.31
2023-02-08T04:27:43.729Z,102677.28
2023-02-08T04:30:13.381Z,102710.94
2023-02-08T04:32:41.268Z,102703.28
2023-02-08T04:35:09.553Z,102685.31
2023-02-08T04:37:37.492Z,102646.03
2023-02-08T04:40:07.623Z,102705.41
2023-02-08T04:42:36.291Z,102691.06
2023-02-08T04:45:04.521Z,102683.50
2023-02-08T04:47:32.435Z,102614.75
2023-02-08T04:50:00.459Z,102658.09
2023-02-08T04:52:28.538Z,102685.84
2023-02-08T04:54:56.488Z,102720.16
2023-02-08T04:57:25.677Z,102718.53
2023-02-08T04:59:53.779Z,102723.19
2023-02-08T05:02:21.637Z,102731.50
2023-02-08T05:04:49.604Z,102730.59
2023-02-08T05:07:17.522Z,102739.09
2023-02-08T05:09:45.524Z,102465.53
2023-02-08T05:12:13.437Z,102663.13
2023-02-08T05:14:42.739Z,102737.78
2023-02-08T05:17:10.708Z,102669.03
2023-02-08T05:19:38.640Z,102732.50
2023-02-08T05:22:06.445Z,102704.50
2023-02-08T05:24:34.369Z,102740.47
2023-02-08T05:27:02.174Z,102745.81
2023-02-08T05:29:30.171Z,102745.91
2023-02-08T05:31:59.426Z,102714.16
2023-02-08T05:34:27.317Z,102748.31
2023-02-08T05:36:56.050Z,102701.41
2023-02-08T05:39:23.869Z,102660.47
2023-02-08T05:41:52.028Z,102751.25
2023-02-08T05:44:20.018Z,102754.06
2023-02-08T05:46:48.196Z,102751.53
2023-02-08T05:49:17.503Z,102742.31
2023-02-08T05:51:45.407Z,102746.94
2023-02-08T05:54:13.250Z,102731.47
2023-02-08T05:56:41.117Z,102755.66
2023-02-08T05:59:10.090Z,102756.66
2023-02-08T06:01:38.633Z,102762.19
2023-02-08T06:04:07.153Z,102756.38
2023-02-08T06:06:36.421Z,102758.78
2023-02-08T06:09:04.868Z,102769.25
2023-02-08T06:11:33.077Z,102762.19
2023-02-08T06:14:01.007Z,102763.72
2023-02-08T06:16:28.986Z,102770.66
2023-02-08T06:18:57.029Z,102769.03
2023-02-08T06:21:24.938Z,102765.59
2023-02-08T06:23:54.183Z,102764.69
2023-02-08T06:26:22.419Z,102659.13
2023-02-08T06:28:50.274Z,102761.69
2023-02-08T06:31:18.150Z,102732.44
2023-02-08T06:33:46.231Z,102763.91
2023-02-08T06:36:14.283Z,102741.09
2023-02-08T06:38:42.371Z,102763.28
2023-02-08T06:41:11.681Z,102765.81
2023-02-08T06:43:40.872Z,102762.19
2023-02-08T06:46:08.804Z,102759.97
2023-02-08T06:48:37.190Z,102766.91
2023-02-08T06:51:05.294Z,102696.59
2023-02-08T06:53:33.595Z,102768.53
2023-02-08T06:56:01.377Z,102766.03
2023-02-08T06:58:31.459Z,102767.03
2023-02-08T07:00:59.180Z,102766.81
2023-02-08T07:03:27.045Z,102752.94
2023-02-08T07:06:04.608Z,102763.50
2023-02-08T07:08:33.638Z,102756.56
2023-02-08T07:11:01.754Z,102757.38
2023-02-08T07:13:30.971Z,102748.31
2023-02-08T07:15:58.790Z,102760.50
2023-02-08T07:18:26.704Z,102744.81
2023-02-08T07:20:54.388Z,102746.34
2023-02-08T07:23:22.264Z,102754.44
2023-02-08T07:25:58.334Z,102750.25
2023-02-08T07:28:26.337Z,102779.69
2023-02-08T07:30:55.828Z,102737.66
2023-02-08T07:33:24.815Z,102746.41
2023-02-08T07:35:53.297Z,102703.22
2023-02-08T07:38:21.092Z,102747.31
2023-02-08T07:40:48.980Z,102740.66
2023-02-08T07:43:16.821Z,102752.41
2023-02-08T07:45:56.230Z,102752.59
2023-02-08T07:48:24.117Z,102750.09
2023-02-08T07:50:51.912Z,102748.63
2023-02-08T07:53:20.608Z,102754.03
2023-02-08T07:55:48.386Z,102744.75
2023-02-08T07:58:16.288Z,102748.69
2023-02-08T08:00:44.108Z,102753.03
2023-02-08T08:03:13.344Z,102740.53
2023-02-08T08:05:42.025Z,102745.50
2023-02-08T08:08:10.563Z,102700.88
2023-02-08T08:10:39.440Z,102738.13
2023-02-08T08:13:07.553Z,102740.50
2023-02-08T08:15:35.392Z,102746.13
2023-02-08T08:18:03.158Z,102736.97
2023-02-08T08:20:32.603Z,102748.09
2023-02-08T08:23:01.525Z,102740.34
2023-02-08T08:25:29.447Z,102736.25
2023-02-08T08:27:57.736Z,102738.66
2023-02-08T08:30:25.954Z,102731.59
2023-02-08T08:32:53.888Z,102735.88
2023-02-08T08:35:21.752Z,102699.47
2023-02-08T08:37:50.901Z,102736.00
2023-02-08T08:40:18.787Z,102738.91
2023-02-08T08:42:46.907Z,102730.69
2023-02-08T08:45:14.726Z,102382.53
2023-02-08T08:47:42.831Z,102726.75
2023-02-08T08:50:10.875Z,102726.09
2023-02-08T08:52:40.387Z,102666.22
2023-02-08T08:55:10.341Z,102686.56
2023-02-08T08:57:38.315Z,102572.44
2023-02-08T09:00:06.756Z,102720.34
2023-02-08T09:02:35.798Z,102724.34
2023-02-08T09:05:05.373Z,102705.97
2023-02-08T09:07:34.338Z,102682.00
2023-02-08T09:10:02.226Z,102699.25
2023-02-08T09:12:31.510Z,102677.84
2023-02-08T09:14:59.361Z,102713.16
2023-02-08T09:17:27.443Z,102714.38
2023-02-08T09:19:55.291Z,102710.00
2023-02-08T09:22:23.571Z,102712.84
2023-02-08T09:24:53.406Z,102692.97
2023-02-08T09:27:21.248Z,102699.06
2023-02-08T09:29:50.560Z,102676.44
2023-02-08T09:32:18.445Z,102669.44
2023-02-08T09:34:46.417Z,102693.97
2023-02-08T09:37:14.246Z,102700.81
2023-02-08T09:39:42.127Z,102699.81
2023-02-08T09:42:36.692Z,102694.25
2023-02-08T09:45:31.962Z,102691.53
2023-02-08T09:48:07.027Z,102651.28
2023-02-08T09:50:39.486Z,102678.41
2023-02-08T09:53:15.074Z,102676.91
2023-02-08T09:55:47.172Z,102678.09
2023-02-08T09:58:23.061Z,102682.38
2023-02-08T10:00:54.354Z,102688.13
2023-02-08T10:03:34.733Z,102670.59
2023-02-08T10:06:03.394Z,102691.72
2023-02-08T10:08:35.530Z,102687.47
2023-02-08T10:11:17.879Z,102683.97
2023-02-08T10:14:05.717Z,102683.31
2023-02-08T10:16:59.917Z,102689.19
2023-02-08T10:19:43.327Z,102678.34
2023-02-08T10:22:24.128Z,102679.81
2023-02-08T10:25:35.512Z,102673.03
2023-02-08T10:28:31.386Z,102665.53
2023-02-08T10:31:07.654Z,102676.50
2023-02-08T10:33:43.703Z,102684.00
2023-02-08T10:36:16.173Z,102680.75
2023-02-08T10:38:46.845Z,102584.38
2023-02-08T10:41:19.560Z,102671.06
2023-02-08T10:43:52.496Z,102668.19
2023-02-08T10:46:26.894Z,102666.56
2023-02-08T10:49:08.237Z,102661.91
2023-02-08T10:51:38.138Z,102662.34
2023-02-08T10:54:06.471Z,102657.91
2023-02-08T10:56:45.445Z,102649.97
2023-02-08T10:59:18.570Z,102641.47
2023-02-08T11:01:48.706Z,102641.00
2023-02-08T11:04:18.044Z,102637.63
2023-02-08T11:06:47.133Z,102628.13
2023-02-08T11:09:27.167Z,102618.97
2023-02-08T11:11:55.873Z,102628.03
2023-02-08T11:14:45.348Z,102594.94
2023-02-08T11:17:27.048Z,102628.03
2023-02-08T11:19:56.619Z,102617.16
2023-02-08T11:22:26.282Z,102630.69
2023-02-08T11:24:59.511Z,102619.44
2023-02-08T11:27:34.056Z,102622.44
2023-02-08T11:30:21.039Z,102611.09
2023-02-08T11:32:51.228Z,102609.69
2023-02-08T11:35:22.832Z,102613.16
2023-02-08T11:37:52.320Z,102608.47
2023-02-08T11:40:23.699Z,102603.09
2023-02-08T11:42:52.685Z,102599.28
2023-02-08T11:45:23.456Z,102598.34
2023-02-08T11:47:52.449Z,102582.19
2023-02-08T11:50:28.096Z,102601.84
2023-02-08T11:53:00.269Z,102483.94
2023-02-08T11:55:30.326Z,102595.22
2023-02-08T11:58:02.030Z,102599.50
2023-02-08T12:00:34.053Z,102598.00
2023-02-08T12:03:05.474Z,102600.72
2023-02-08T12:05:45.274Z,102589.31
2023-02-08T12:08:21.622Z,102584.75
2023-02-08T12:11:04.726Z,102590.75
2023-02-08T12:13:48.512Z,102572.13
2023-02-08T12:16:34.206Z,102575.88
2023-02-08T12:19:25.885Z,102577.13
2023-02-08T12:22:02.480Z,102577.34
2023-02-08T12:24:41.801Z,102573.84
2023-02-08T12:27:27.332Z,102541.47
2023-02-08T12:30:04.001Z,102562.94
2023-02-08T12:33:04.941Z,102567.28
2023-02-08T12:36:04.568Z,102568.16
2023-02-08T12:39:24.689Z,102512.31
2023-02-08T12:42:15.529Z,102546.63
2023-02-08T12:45:00.343Z,102546.81
2023-02-08T12:47:58.214Z,102544.22
2023-02-08T12:50:35.980Z,102505.03
2023-02-08T12:53:12.676Z,102531.31
2023-02-08T12:55:44.424Z,102406.50
2023-02-08T12:58:25.579Z,102429.19
2023-02-08T13:00:56.535Z,102523.66
2023-02-08T13:03:36.358Z,102520.13
2023-02-08T13:06:07.448Z,102511.03
2023-02-08T13:08:41.991Z,102512.16
2023-02-08T13:11:20.232Z,102509.69
2023-02-08T13:13:56.694Z,102475.72
2023-02-08T13:16:28.599Z,102495.56
2023-02-08T13:19:04.563Z,102466.09
2023-02-08T13:21:38.163Z,102495.56
2023-02-08T13:24:08.645Z,102486.44
2023-02-08T13:26:40.530Z,102495.34
2023-02-08T13:29:18.519Z,102492.75
2023-02-08T13:31:52.558Z,102479.66
2023-02-08T13:34:30.677Z,102475.22
2023-02-08T13:37:01.862Z,102433.66
2023-02-08T13:39:37.023Z,102460.41
2023-02-08T13:42:09.559Z,102458.00
2023-02-08T13:44:39.623Z,102398.03
2023-02-08T13:47:08.837Z,102452.72
2023-02-08T13:49:53.563Z,102422.41
2023-02-08T13:52:53.144Z,102440.25
2023-02-08T13:55:53.220Z,102440.22
2023-02-08T13:58:37.329Z,102435.78
2023-02-08T14:01:17.158Z,102439.22
2023-02-08T14:03:45.640Z,102431.16
2023-02-08T14:06:24.219Z,102335.59
2023-02-08T14:08:58.110Z,102423.56
2023-02-08T14:11:40.043Z,102427.00
2023-02-08T14:14:19.563Z,102426.06
2023-02-08T14:16:58.037Z,102424.38
2023-02-08T14:19:26.368Z,102409.28
2023-02-08T14:22:03.682Z,102388.84
2023-02-08T14:24:34.439Z,102411.91
2023-02-08T14:27:10.955Z,102405.91
2023-02-08T14:29:40.291Z,102413.97
2023-02-08T14:32:08.309Z,102412.81
2023-02-08T14:34:39.179Z,102410.09
2023-02-08T14:37:28.572Z,102406.59
2023-02-08T14:40:29.922Z,102409.09
2023-02-08T14:43:00.080Z,102412.72
2023-02-08T14:45:31.857Z,102408.25
2023-02-08T14:48:06.261Z,102409.72
2023-02-08T14:50:43.746Z,102407.78
2023-02-08T14:53:24.951Z,102404.16
2023-02-08T14:55:57.716Z,102368.66
2023-02-08T14:58:30.940Z,102388.34
2023-02-08T15:01:03.363Z,102387.50
2023-02-08T15:03:34.627Z,102392.84
2023-02-08T15:06:27.143Z,102384.84
2023-02-08T15:08:56.439Z,102378.56
2023-02-08T15:11:27.218Z,102380.22
2023-02-08T15:14:00.627Z,102356.91
2023-02-08T15:16:35.156Z,102371.06
2023-02-08T15:19:04.793Z,102358.53
2023-02-08T15:21:36.938Z,102324.63
2023-02-08T15:24:14.041Z,102354.31
2023-02-08T15:26:46.254Z,102348.59
2023-02-08T15:29:27.964Z,102350.81
2023-02-08T15:32:02.178Z,102356.63
2023-02-08T15:34:30.076Z,102348.16
2023-02-08T15:36:58.371Z,102352.97
2023-02-08T15:39:33.844Z,101967.91
2023-02-08T15:42:02.409Z,102347.03
2023-02-08T15:44:32.148Z,102352.06
2023-02-08T15:47:03.169Z,102352.63
2023-02-08T15:49:34.753Z,102355.41
2023-02-08T15:52:03.668Z,102353.09
2023-02-08T15:54:31.867Z,102343.00
2023-02-08T15:57:04.594Z,102348.69
2023-02-08T15:59:36.298Z,102102.97
2023-02-08T16:02:23.621Z,102324.91
2023-02-08T16:04:51.935Z,102345.03
2023-02-08T16:07:28.401Z,102337.81
2023-02-08T16:09:58.564Z,102312.41
2023-02-08T16:12:28.942Z,102333.66
2023-02-08T16:14:57.462Z,102336.91
2023-02-08T16:17:38.436Z,102327.69
2023-02-08T16:20:22.771Z,102325.56
2023-02-08T16:22:57.046Z,102328.34
2023-02-08T16:25:33.901Z,102328.53
2023-02-08T16:28:02.670Z,102328.59
2023-02-08T16:30:30.986Z,102329.19
2023-02-08T16:33:07.609Z,102334.06
2023-02-08T16:35:40.417Z,102284.09
2023-02-08T16:38:10.304Z,102337.03
2023-02-08T16:40:51.304Z,102323.13
2023-02-08T16:43:22.442Z,102311.47
2023-02-08T16:46:25.125Z,102325.06
2023-02-08T16:48:56.505Z,102331.13
2023-02-08T16:51:27.383Z,102335.28
2023-02-08T16:53:57.743Z,102335.97
2023-02-08T16:56:25.913Z,102312.06
2023-02-08T16:58:53.994Z,102335.13
2023-02-08T17:01:24.017Z,102316.69
2023-02-08T17:03:53.147Z,102334.53
2023-02-08T17:06:28.469Z,102326.84
2023-02-08T17:08:56.790Z,102302.50
2023-02-08T17:11:24.629Z,102320.25
2023-02-08T17:13:53.132Z,102321.53
2023-02-08T17:16:23.055Z,102311.31
2023-02-08T17:18:51.624Z,102304.38
2023-02-08T17:21:19.497Z,102297.16
2023-02-08T17:23:48.721Z,102315.66
2023-02-08T17:26:22.324Z,102306.53
2023-02-08T17:28:51.478Z,102306.31
2023-02-08T17:31:19.617Z,102293.63
2023-02-08T17:33:48.372Z,102299.78
2023-02-08T17:36:16.945Z,102260.22
2023-02-08T17:38:46.631Z,102293.50
2023-02-08T17:41:18.502Z,102304.78
2023-02-08T17:43:47.560Z,102291.81
2023-02-08T17:46:17.841Z,102305.47
2023-02-08T17:48:48.168Z,102290.97
2023-02-08T17:51:17.756Z,102298.03
2023-02-08T17:53:46.063Z,102294.91
2023-02-08T17:56:18.002Z,102295.81
2023-02-08T17:58:48.932Z,102288.25
2023-02-08T18:01:21.486Z,102278.50
2023-02-08T18:03:50.071Z,102274.06
2023-02-08T18:06:18.620Z,102154.56
2023-02-08T18:08:46.847Z,102277.59
2023-02-08T18:11:20.150Z,102233.72
2023-02-08T18:13:49.706Z,102264.13
2023-02-08T18:16:19.846Z,102252.28
2023-02-08T18:18:47.889Z,102239.41
2023-02-08T18:21:18.000Z,102249.38
2023-02-08T18:23:46.050Z,102253.06
2023-02-08T18:26:17.903Z,102232.13
2023-02-08T18:28:46.402Z,102248.41
2023-02-08T18:31:16.752Z,102246.75
2023-02-08T18:33:45.016Z,102245.88
2023-02-08T18:36:13.526Z,102243.47
2023-02-08T18:38:45.452Z,102241.97
2023-02-08T18:41:15.562Z,102217.63
2023-02-08T18:43:44.794Z,102224.81
2023-02-08T18:46:18.119Z,102203.66
2023-02-08T18:48:47.627Z,102224.25
2023-02-08T18:51:19.694Z,102230.22
2023-02-08T18:53:50.429Z,102201.16
2023-02-08T18:56:21.445Z,102209.31
2023-02-08T18:58:51.694Z,102215.44
2023-02-08T19:01:22.385Z,102209.31
2023-02-08T19:03:51.753Z,102208.13
2023-02-08T19:06:22.819Z,102206.41
2023-02-08T19:08:52.614Z,102189.56
2023-02-08T19:11:22.740Z,102202.91
2023-02-08T19:13:52.401Z,102199.44
2023-02-08T19:16:22.430Z,102149.69
2023-02-08T19:18:50.484Z,102193.94
2023-02-08T19:21:19.139Z,102126.13
2023-02-08T19:23:47.757Z,102160.34
2023-02-08T19:26:19.177Z,101873.16
2023-02-08T19:28:47.248Z,102069.09
2023-02-08T19:31:19.303Z,102188.59
2023-02-08T19:33:49.498Z,102158.66
2023-02-08T19:36:18.144Z,102195.25
2023-02-08T19:38:46.299Z,102187.25
2023-02-08T19:41:17.060Z,102194.28
2023-02-08T19:43:45.625Z,102137.75
2023-02-08T19:46:14.906Z,102186.94
2023-02-08T19:48:44.373Z,102180.31
2023-02-08T19:51:12.284Z,102177.47
2023-02-08T19:53:40.204Z,102175.50
2023-02-08T19:56:10.008Z,102173.69
2023-02-08T19:58:38.634Z,102175.13
2023-02-08T20:01:08.169Z,102155.84
2023-02-08T20:03:36.261Z,102163.44
2023-02-08T20:06:06.292Z,102172.63
2023-02-08T20:08:33.958Z,102169.19
2023-02-08T20:11:01.864Z,102163.75
2023-02-08T20:13:29.759Z,102168.78
2023-02-08T20:16:00.018Z,102168.69
2023-02-08T20:18:28.018Z,102158.69
2023-02-08T20:21:03.184Z,102137.84
2023-02-08T20:23:33.069Z,102149.69
2023-02-08T20:26:05.893Z,102164.97
2023-02-08T20:28:33.765Z,102174.97
2023-02-08T20:31:01.738Z,102176.63
2023-02-08T20:33:29.786Z,102175.56
2023-02-08T20:35:57.690Z,102125.56
2023-02-08T20:38:25.538Z,102137.75
2023-02-08T20:41:02.464Z,102169.69
2023-02-08T20:43:30.605Z,102163.44
2023-02-08T20:45:58.512Z,102141.25
2023-02-08T20:48:26.866Z,102182.41
2023-02-08T20:50:54.629Z,102186.00
2023-02-08T20:53:22.968Z,102183.03
2023-02-08T20:55:50.793Z,102156.88
2023-02-08T20:58:19.985Z,102174.31
2023-02-08T21:00:47.839Z,102164.94
2023-02-08T21:03:15.779Z,102177.38
2023-02-08T21:05:43.546Z,102193.25
2023-02-08T21:08:11.357Z,102175.34
2023-02-08T21:10:39.285Z,102160.59
2023-02-08T21:13:07.139Z,102167.03
2023-02-08T21:15:36.534Z,102126.38
2023-02-08T21:18:04.550Z,102100.44
2023-02-08T21:20:32.400Z,102154.19
2023-02-08T21:23:00.240Z,102151.91
2023-02-08T21:25:28.188Z,102164.75
2023-02-08T21:27:57.593Z,102158.53
2023-02-08T21:30:25.613Z,102157.00
2023-02-08T21:32:54.777Z,102074.75
2023-02-08T21:35:22.659Z,102155.16
2023-02-08T21:37:50.481Z,102159.72
2023-02-08T21:40:18.497Z,102157.91
2023-02-08T21:42:46.339Z,102139.84
2023-02-08T21:45:14.576Z,102138.63
2023-02-08T21:47:42.568Z,102173.03
2023-02-08T21:50:29.556Z,102021.03
2023-02-08T21:53:14.842Z,102164.75
2023-02-08T21:55:46.520Z,102154.31
2023-02-08T21:58:14.865Z,102174.28
2023-02-08T22:00:42.948Z,102168.09
2023-02-08T22:03:11.229Z,102173.94
2023-02-08T22:05:57.717Z,102124.38
2023-02-08T22:08:25.754Z,102149.84
2023-02-08T22:10:58.421Z,102173.16
2023-02-08T22:13:26.722Z,102170.16
2023-02-08T22:15:54.618Z,102071.72
2023-02-08T22:18:22.862Z,102162.00
2023-02-08T22:20:53.509Z,102159.78
2023-02-08T22:23:21.643Z,102146.66
2023-02-08T22:25:49.485Z,102167.75
2023-02-08T22:28:17.412Z,102172.09
2023-02-08T22:30:48.458Z,102170.84
2023-02-08T22:33:16.501Z,102164.28
2023-02-08T22:35:44.285Z,102173.47
2023-02-08T22:38:13.488Z,102176.31
2023-02-08T22:40:42.964Z,102166.13
2023-02-08T22:43:11.064Z,102159.72
2023-02-08T22:45:39.147Z,102135.78
2023-02-08T22:48:07.021Z,102140.28
2023-02-08T22:50:35.075Z,102157.78
2023-02-08T22:53:02.908Z,102160.84
2023-02-08T22:55:32.162Z,102168.19
2023-02-08T22:57:59.993Z,102175.63
2023-02-08T23:00:27.925Z,102174.25
2023-02-08T23:02:55.864Z,102130.72
2023-02-08T23:05:23.752Z,102164.03
2023-02-08T23:07:51.662Z,102160.56
2023-02-08T23:10:19.616Z,102163.19
2023-02-08T23:12:48.845Z,102135.03
2023-02-08T23:15:16.983Z,102139.31
2023-02-08T23:17:44.882Z,102152.25
2023-02-08T23:20:13.078Z,102152.00
2023-02-08T23:22:40.904Z,102154.66
2023-02-08T23:25:08.971Z,102152.88
2023-02-08T23:27:37.269Z,102058.97
2023-02-08T23:30:09.509Z,102152.34
2023-02-08T23:32:37.728Z,102146.75
2023-02-08T23:35:05.912Z,102141.50
2023-02-08T23:37:33.781Z,102144.41
2023-02-08T23:40:01.762Z,102152.56
2023-02-08T23:42:29.587Z,102151.03
2023-02-08T23:44:59.144Z,102148.84
2023-02-08T23:47:29.945Z,102143.19
2023-02-08T23:49:57.767Z,102134.75
2023-02-08T23:52:25.914Z,102127.00
2023-02-08T23:54:54.727Z,102118.75
2023-02-08T23:57:22.547Z,102123.69
2023-02-08T23:59:50.399Z,102126.88
